Inadale, Texas
Current Conditions -  °F | °C
As of 7:15 AM on Thursday 30 Oct 2014 (Local Time) from KSWW Reporting Station
Clear Clear  
Wind Chill: 58°   Ceiling: Unl
Heat Index: 58°   Visibility: 10mi
Dew Point: 55°   Wind: 10mph
Humidity: 90%   Direction: 160°SSE
Pressure: 30.14"   Gusts: NA
Location:  32.3875°N, 100.536°W
Report Text: KSWW 301215Z AUTO 16009KT 10SM CLR 15/13 A3014 RMK AO2 T01470130
Loading
Personal Weather Stations






























Interactive Weather Map
Tropical Storm Tracking
New forecast layout! Learn more

10-Day Weather Forecast

Advertisements
Track Severe Weather on mobile